createdAt,value
2018-12-13T00:00:41.182Z,0.80
2018-12-13T00:03:13.209Z,0.80
2018-12-13T00:05:45.130Z,0.80
2018-12-13T00:08:16.895Z,0.80
2018-12-13T00:10:48.881Z,0.80
2018-12-13T00:13:22.344Z,0.80
2018-12-13T00:15:54.222Z,0.70
2018-12-13T00:18:26.331Z,0.60
2018-12-13T00:20:58.368Z,0.60
2018-12-13T00:23:30.130Z,0.60
2018-12-13T00:26:03.111Z,0.60
2018-12-13T00:28:35.071Z,0.50
2018-12-13T00:31:07.213Z,0.50
2018-12-13T00:33:38.921Z,0.50
2018-12-13T00:36:10.743Z,0.50
2018-12-13T00:38:42.613Z,0.50
2018-12-13T00:41:14.681Z,0.40
2018-12-13T00:43:47.296Z,0.40
2018-12-13T00:46:19.356Z,0.50
2018-12-13T00:48:52.321Z,0.60
2018-12-13T00:51:24.494Z,0.60
2018-12-13T00:53:56.556Z,0.60
2018-12-13T00:56:28.310Z,0.60
2018-12-13T00:59:00.411Z,0.60
2018-12-13T01:01:32.491Z,0.50
2018-12-13T01:04:04.513Z,0.50
2018-12-13T01:06:38.391Z,0.60
2018-12-13T01:09:11.091Z,0.60
2018-12-13T01:11:42.855Z,0.60
2018-12-13T01:14:14.860Z,0.50
2018-12-13T01:16:47.809Z,0.50
2018-12-13T01:19:19.884Z,0.40
2018-12-13T01:21:52.039Z,0.50
2018-12-13T01:24:23.791Z,0.40
2018-12-13T01:26:55.565Z,0.30
2018-12-13T01:29:27.418Z,0.30
2018-12-13T01:31:59.248Z,0.20
2018-12-13T01:34:31.300Z,0.20
2018-12-13T01:40:17.303Z,0.20
2018-12-13T01:42:49.459Z,0.10
2018-12-13T01:45:21.753Z,0.00
2018-12-13T01:47:53.541Z,0.00
2018-12-13T01:50:26.750Z,-0.10
2018-12-13T01:52:59.516Z,-0.10
2018-12-13T01:55:31.835Z,-0.10
2018-12-13T01:58:03.985Z,-0.10
2018-12-13T02:00:35.929Z,-0.10
2018-12-13T02:03:07.645Z,-0.10
2018-12-13T02:05:39.490Z,-0.10
2018-12-13T02:08:11.330Z,-0.10
2018-12-13T02:10:43.399Z,-0.20
2018-12-13T02:13:15.473Z,-0.30
2018-12-13T02:15:47.743Z,-0.30
2018-12-13T02:18:19.611Z,-0.30
2018-12-13T02:20:51.992Z,-0.40
2018-12-13T02:23:24.819Z,-0.40
2018-12-13T02:25:56.713Z,-0.40
2018-12-13T02:28:28.620Z,-0.50
2018-12-13T02:31:00.627Z,-0.50
2018-12-13T02:33:33.273Z,-0.60
2018-12-13T02:36:05.738Z,-0.70
2018-12-13T02:38:37.482Z,-0.70
2018-12-13T02:41:09.609Z,-0.70
2018-12-13T02:43:42.361Z,-0.80
2018-12-13T02:46:14.106Z,-0.70
2018-12-13T02:48:45.839Z,-0.70
2018-12-13T02:51:17.954Z,-0.70
2018-12-13T02:53:49.838Z,-0.70
2018-12-13T02:56:22.088Z,-0.70
2018-12-13T02:58:53.995Z,-0.80
2018-12-13T03:01:26.109Z,-0.80
2018-12-13T03:03:58.117Z,-0.70
2018-12-13T03:06:32.506Z,-0.80
2018-12-13T03:09:05.489Z,-0.90
2018-12-13T03:11:37.835Z,-0.90
2018-12-13T03:14:09.760Z,-1.00
2018-12-13T03:16:42.729Z,-1.00
2018-12-13T03:19:14.797Z,-1.00
2018-12-13T03:21:48.583Z,-1.10
2018-12-13T03:24:21.899Z,-1.10
2018-12-13T03:26:53.837Z,-1.10
2018-12-13T03:29:25.622Z,-1.00
2018-12-13T03:31:57.561Z,-1.00
2018-12-13T03:34:30.020Z,-1.00
2018-12-13T03:37:02.035Z,-1.00
2018-12-13T03:39:34.185Z,-1.00
2018-12-13T03:42:07.684Z,-1.00
2018-12-13T03:44:39.250Z,-1.00
2018-12-13T03:47:11.060Z,-1.00
2018-12-13T03:49:42.975Z,-1.00
2018-12-13T03:52:14.521Z,-0.70
2018-12-13T03:54:46.419Z,-0.60
2018-12-13T03:57:19.240Z,-0.50
2018-12-13T03:59:51.076Z,-0.50
2018-12-13T04:02:23.221Z,-0.60
2018-12-13T04:04:55.236Z,-0.70
2018-12-13T04:07:27.793Z,-0.70
2018-12-13T04:09:59.945Z,-0.70
2018-12-13T04:12:31.787Z,-0.70
2018-12-13T04:15:03.707Z,-0.60
2018-12-13T04:17:36.206Z,-0.70
2018-12-13T04:20:08.233Z,-0.70
2018-12-13T04:22:40.277Z,-0.70
2018-12-13T04:25:12.851Z,-0.70
2018-12-13T04:27:44.724Z,-0.70
2018-12-13T04:30:16.719Z,-0.70
2018-12-13T04:32:49.690Z,-0.80
2018-12-13T04:35:22.259Z,-0.80
2018-12-13T04:37:54.771Z,-0.80
2018-12-13T04:40:26.884Z,-0.90
2018-12-13T04:42:58.766Z,-0.90
2018-12-13T04:45:30.888Z,-1.00
2018-12-13T04:48:03.037Z,-1.10
2018-12-13T04:50:34.911Z,-1.20
2018-12-13T04:53:06.806Z,-1.40
2018-12-13T04:55:38.840Z,-1.50
2018-12-13T04:58:10.873Z,-1.60
2018-12-13T05:00:43.130Z,-1.70
2018-12-13T05:03:15.883Z,-1.80
2018-12-13T05:05:47.806Z,-1.80
2018-12-13T05:08:20.493Z,-1.90
2018-12-13T05:10:55.849Z,-1.90
2018-12-13T05:13:27.882Z,-1.90
2018-12-13T05:15:59.655Z,-1.90
2018-12-13T05:18:32.341Z,-2.00
2018-12-13T05:21:04.540Z,-2.00
2018-12-13T05:23:37.644Z,-2.10
2018-12-13T05:26:10.023Z,-2.10
2018-12-13T05:28:42.065Z,-2.10
2018-12-13T05:31:13.944Z,-2.10
2018-12-13T05:33:46.115Z,-2.10
2018-12-13T05:36:18.204Z,-2.10
2018-12-13T05:38:49.864Z,-2.20
2018-12-13T05:41:22.199Z,-2.10
2018-12-13T05:43:55.301Z,-2.10
2018-12-13T05:46:27.786Z,-2.20
2018-12-13T05:49:00.467Z,-2.20
2018-12-13T05:51:32.425Z,-2.30
2018-12-13T05:54:04.383Z,-2.30
2018-12-13T05:56:36.527Z,-2.40
2018-12-13T05:59:08.336Z,-2.40
2018-12-13T06:01:40.287Z,-2.50
2018-12-13T06:04:12.696Z,-2.50
2018-12-13T06:06:44.670Z,-2.60
2018-12-13T06:09:16.696Z,-2.50
2018-12-13T06:11:48.216Z,-2.40
2018-12-13T06:14:19.978Z,-2.30
2018-12-13T06:16:51.963Z,-1.60
2018-12-13T06:19:26.664Z,-0.80
2018-12-13T06:21:58.791Z,-0.30
2018-12-13T06:24:30.951Z,0.40
2018-12-13T06:27:02.985Z,1.60
2018-12-13T06:29:41.590Z,2.70
2018-12-13T06:32:09.018Z,3.70
2018-12-13T06:34:40.789Z,4.50
2018-12-13T06:37:13.219Z,5.30
2018-12-13T06:39:45.210Z,5.90
2018-12-13T06:42:17.135Z,6.20
2018-12-13T06:44:49.167Z,6.40
2018-12-13T06:47:21.392Z,6.30
2018-12-13T06:49:53.558Z,6.40
2018-12-13T06:52:25.762Z,6.60
2018-12-13T06:54:58.004Z,7.00
2018-12-13T06:57:31.036Z,7.00
2018-12-13T07:00:03.417Z,6.90
2018-12-13T07:02:35.774Z,6.40
2018-12-13T07:05:08.046Z,5.80
2018-12-13T07:07:39.745Z,5.40
2018-12-13T07:10:12.394Z,4.80
2018-12-13T07:12:44.510Z,4.40
2018-12-13T07:15:16.490Z,4.20
2018-12-13T07:17:49.410Z,3.90
2018-12-13T07:20:21.296Z,3.90
2018-12-13T07:22:53.400Z,3.70
2018-12-13T07:25:25.420Z,3.50
2018-12-13T07:27:57.277Z,3.40
2018-12-13T07:30:29.433Z,3.30
2018-12-13T07:33:01.458Z,3.20
2018-12-13T07:35:33.614Z,3.10
2018-12-13T07:38:05.877Z,3.30
2018-12-13T07:40:38.223Z,4.20
2018-12-13T07:43:10.640Z,5.40
2018-12-13T07:45:43.227Z,6.60
2018-12-13T07:48:15.229Z,7.30
2018-12-13T07:50:47.223Z,8.10
2018-12-13T07:53:19.146Z,8.60
2018-12-13T07:55:51.242Z,9.60
2018-12-13T07:58:24.267Z,10.10
2018-12-13T08:00:56.390Z,10.80
2018-12-13T08:03:28.491Z,11.30
2018-12-13T08:06:00.646Z,11.70
2018-12-13T08:08:32.651Z,11.60
2018-12-13T08:11:04.658Z,11.60
2018-12-13T08:13:37.757Z,11.30
2018-12-13T08:16:10.030Z,11.80
2018-12-13T08:18:42.338Z,12.20
2018-12-13T08:33:12.180Z,13.10
2018-12-13T08:35:43.993Z,15.70
2018-12-13T08:38:15.968Z,15.90
2018-12-13T08:40:48.302Z,15.70
2018-12-13T08:43:20.381Z,16.10
2018-12-13T08:45:52.569Z,16.30
2018-12-13T08:48:24.975Z,16.60
2018-12-13T08:50:57.446Z,16.60
2018-12-13T08:53:29.520Z,16.20
2018-12-13T08:56:01.512Z,16.50
2018-12-13T08:58:35.154Z,17.20
2018-12-13T09:01:06.792Z,17.70
2018-12-13T09:03:39.959Z,18.00
2018-12-13T09:06:12.063Z,17.30
2018-12-13T09:08:44.167Z,16.20
2018-12-13T09:11:17.360Z,15.00
2018-12-13T09:13:49.549Z,13.50
2018-12-13T09:16:21.569Z,12.30
2018-12-13T09:18:54.621Z,11.40
2018-12-13T09:21:27.123Z,10.90
2018-12-13T09:23:59.192Z,10.70
2018-12-13T09:26:31.147Z,10.50
2018-12-13T09:29:03.297Z,10.10
2018-12-13T09:31:35.141Z,9.80
2018-12-13T09:34:08.264Z,9.40
2018-12-13T09:36:40.389Z,9.30
2018-12-13T09:39:12.346Z,9.40
2018-12-13T09:41:44.638Z,9.40
2018-12-13T09:44:18.229Z,9.60
2018-12-13T09:46:50.251Z,9.60
2018-12-13T09:49:23.568Z,9.50
2018-12-13T09:51:55.586Z,9.50
2018-12-13T09:54:27.852Z,9.50
2018-12-13T09:57:00.238Z,9.60
2018-12-13T09:59:32.572Z,9.80
2018-12-13T10:02:06.234Z,9.90
2018-12-13T10:04:38.560Z,9.80
2018-12-13T10:07:11.373Z,9.70
2018-12-13T10:09:43.416Z,9.50
2018-12-13T10:12:15.788Z,9.30
2018-12-13T10:14:48.294Z,9.40
2018-12-13T10:17:20.469Z,9.40
2018-12-13T10:19:52.652Z,9.30
2018-12-13T10:22:24.914Z,9.20
2018-12-13T10:24:56.711Z,9.20
2018-12-13T10:27:28.941Z,9.30
2018-12-13T10:30:00.970Z,9.10
2018-12-13T10:32:33.080Z,8.90
2018-12-13T10:35:11.143Z,8.70
2018-12-13T10:37:39.383Z,8.50
2018-12-13T10:40:11.535Z,8.20
2018-12-13T10:42:43.688Z,8.10
2018-12-13T10:45:16.044Z,8.10
2018-12-13T10:47:48.495Z,8.10
2018-12-13T10:50:20.732Z,8.00
2018-12-13T10:52:53.143Z,8.00
2018-12-13T10:55:25.729Z,8.10
2018-12-13T10:57:58.692Z,8.00
2018-12-13T11:00:35.969Z,8.00
2018-12-13T11:03:25.447Z,8.10
2018-12-13T11:05:57.484Z,8.10
2018-12-13T11:08:29.636Z,7.90
2018-12-13T11:11:01.573Z,7.80
2018-12-13T11:13:33.973Z,7.50
2018-12-13T11:16:06.313Z,7.50
2018-12-13T11:18:38.443Z,7.50
2018-12-13T11:21:17.186Z,7.50
2018-12-13T11:23:45.417Z,7.60
2018-12-13T11:26:18.138Z,7.70
2018-12-13T11:30:30.460Z,7.80
2018-12-13T11:33:02.385Z,8.00
2018-12-13T11:35:34.179Z,7.90
2018-12-13T11:38:06.390Z,7.70
2018-12-13T11:40:38.514Z,7.60
2018-12-13T11:43:11.726Z,7.50
2018-12-13T11:45:43.984Z,7.40
2018-12-13T11:48:15.996Z,7.50
2018-12-13T11:50:48.699Z,7.60
2018-12-13T11:53:20.839Z,7.60
2018-12-13T11:55:53.014Z,7.50
2018-12-13T11:58:25.440Z,7.50
2018-12-13T12:00:57.561Z,7.40
2018-12-13T12:03:29.536Z,7.40
2018-12-13T12:06:01.710Z,7.40
2018-12-13T12:08:33.681Z,7.40
2018-12-13T12:11:06.547Z,7.50
2018-12-13T12:13:38.877Z,7.50
2018-12-13T12:16:11.167Z,7.50
2018-12-13T12:18:44.706Z,7.30
2018-12-13T12:21:16.665Z,7.20
2018-12-13T12:23:48.497Z,7.00
2018-12-13T12:26:20.152Z,6.80
2018-12-13T12:28:52.124Z,6.70
2018-12-13T12:31:24.317Z,6.70
2018-12-13T12:33:56.334Z,6.70
2018-12-13T12:36:28.586Z,6.70
2018-12-13T12:39:00.441Z,6.70
2018-12-13T12:41:32.554Z,6.70
2018-12-13T12:44:04.981Z,6.60
2018-12-13T12:46:37.016Z,6.30
2018-12-13T12:49:09.359Z,6.20
2018-12-13T12:51:41.559Z,6.10
2018-12-13T12:54:13.827Z,6.00
2018-12-13T12:56:45.916Z,5.90
2018-12-13T12:59:18.035Z,6.00
2018-12-13T13:01:50.263Z,6.00
2018-12-13T13:04:23.118Z,6.00
2018-12-13T13:06:56.064Z,5.90
2018-12-13T13:09:29.060Z,5.90
2018-12-13T13:12:01.126Z,5.80
2018-12-13T13:14:33.092Z,5.80
2018-12-13T13:17:06.587Z,5.80
2018-12-13T13:19:38.757Z,5.70
2018-12-13T13:22:11.018Z,5.60
2018-12-13T13:24:43.162Z,5.60
2018-12-13T13:27:15.165Z,5.60
2018-12-13T13:29:47.401Z,5.50
2018-12-13T13:32:20.771Z,5.40
2018-12-13T13:34:52.965Z,5.30
2018-12-13T13:37:24.753Z,5.30
2018-12-13T13:39:56.747Z,5.30
2018-12-13T13:42:29.002Z,5.30
2018-12-13T13:45:03.024Z,5.40
2018-12-13T13:47:34.910Z,5.40
2018-12-13T13:50:07.459Z,5.40
2018-12-13T13:52:39.353Z,5.40
2018-12-13T13:55:11.264Z,5.40
2018-12-13T13:57:43.270Z,5.30
2018-12-13T14:00:15.389Z,5.20
2018-12-13T14:02:47.366Z,5.20
2018-12-13T14:05:19.423Z,5.10
2018-12-13T14:07:51.930Z,5.10
2018-12-13T14:10:25.517Z,5.00
2018-12-13T14:12:58.027Z,4.90
2018-12-13T14:15:29.868Z,4.80
2018-12-13T14:18:02.018Z,4.60
2018-12-13T14:20:34.023Z,4.40
2018-12-13T14:23:06.085Z,4.30
2018-12-13T14:25:37.750Z,4.10
2018-12-13T14:28:09.679Z,4.00
2018-12-13T14:30:42.678Z,4.00
2018-12-13T14:33:14.743Z,3.90
2018-12-13T14:35:47.370Z,3.90
2018-12-13T14:38:21.309Z,3.80
2018-12-13T14:40:54.069Z,3.70
2018-12-13T14:43:26.104Z,3.60
2018-12-13T14:45:58.381Z,3.60
2018-12-13T14:48:30.396Z,3.40
2018-12-13T14:51:03.275Z,3.30
2018-12-13T14:53:35.690Z,3.30
2018-12-13T14:56:07.975Z,3.20
2018-12-13T14:58:39.923Z,3.10
2018-12-13T15:01:11.907Z,3.10
2018-12-13T15:03:43.690Z,2.90
2018-12-13T15:06:15.953Z,2.80
2018-12-13T15:08:48.440Z,2.80
2018-12-13T15:11:20.259Z,2.70
2018-12-13T15:13:52.267Z,2.60
2018-12-13T15:16:24.563Z,2.60
2018-12-13T15:18:56.664Z,2.50
2018-12-13T15:21:29.254Z,2.40
2018-12-13T15:24:01.589Z,2.30
2018-12-13T15:26:33.758Z,2.30
2018-12-13T15:29:06.085Z,2.20
2018-12-13T15:31:38.409Z,2.20
2018-12-13T15:34:10.681Z,2.10
2018-12-13T15:36:43.228Z,2.10
2018-12-13T15:39:15.436Z,2.00
2018-12-13T15:41:47.853Z,2.00
2018-12-13T15:44:20.345Z,1.90
2018-12-13T15:46:52.331Z,1.90
2018-12-13T15:49:24.712Z,1.80
2018-12-13T15:51:57.223Z,1.80
2018-12-13T15:54:29.569Z,1.80
2018-12-13T15:57:03.083Z,1.70
2018-12-13T15:59:35.440Z,1.60
2018-12-13T16:02:07.550Z,1.60
2018-12-13T16:04:39.672Z,1.50
2018-12-13T16:07:11.696Z,1.50
2018-12-13T16:09:43.895Z,1.40
2018-12-13T16:12:16.164Z,1.40
2018-12-13T16:14:48.546Z,1.30
2018-12-13T16:17:20.834Z,1.20
2018-12-13T16:19:53.596Z,1.10
2018-12-13T16:22:26.929Z,1.10
2018-12-13T16:25:00.914Z,1.00
2018-12-13T16:27:32.971Z,1.00
2018-12-13T16:30:06.568Z,0.90
2018-12-13T16:32:38.772Z,0.90
2018-12-13T16:35:11.496Z,0.90
2018-12-13T16:37:43.943Z,0.90
2018-12-13T16:40:17.391Z,0.90
2018-12-13T16:42:51.075Z,0.90
2018-12-13T16:45:25.322Z,1.00
2018-12-13T16:47:58.323Z,0.90
2018-12-13T16:50:31.100Z,0.90
2018-12-13T16:53:03.541Z,0.80
2018-12-13T16:55:36.322Z,0.80
2018-12-13T16:58:09.112Z,0.80
2018-12-13T17:00:41.524Z,0.80
2018-12-13T17:03:46.837Z,0.80
2018-12-13T17:06:18.820Z,0.80
2018-12-13T17:08:52.272Z,0.80
2018-12-13T17:11:25.029Z,0.80
2018-12-13T17:13:57.411Z,0.70
2018-12-13T17:16:30.853Z,0.80
2018-12-13T17:19:03.967Z,0.80
2018-12-13T17:21:37.352Z,0.70
2018-12-13T17:24:10.123Z,0.70
2018-12-13T17:26:42.819Z,0.70
2018-12-13T17:29:15.775Z,0.80
2018-12-13T17:31:48.220Z,0.80
2018-12-13T17:34:21.200Z,0.80
2018-12-13T17:36:54.000Z,0.80
2018-12-13T17:39:33.530Z,0.80
2018-12-13T17:42:06.364Z,0.80
2018-12-13T17:44:39.158Z,0.90
2018-12-13T17:47:11.391Z,0.90
2018-12-13T17:49:44.188Z,0.90
2018-12-13T17:52:16.913Z,1.00
2018-12-13T17:54:49.554Z,1.10
2018-12-13T17:57:23.432Z,1.10
2018-12-13T17:59:57.344Z,1.10
2018-12-13T18:02:30.101Z,1.10
2018-12-13T18:05:03.662Z,1.20
2018-12-13T18:07:36.090Z,1.10
2018-12-13T18:10:11.873Z,1.10
2018-12-13T18:12:44.633Z,1.10
2018-12-13T18:15:17.322Z,1.20
2018-12-13T18:17:51.536Z,1.10
2018-12-13T18:20:24.608Z,1.10
2018-12-13T18:22:57.522Z,1.10
2018-12-13T18:25:30.098Z,1.10
2018-12-13T18:28:03.283Z,1.10
2018-12-13T18:30:36.021Z,1.10
2018-12-13T18:33:10.213Z,1.10
2018-12-13T18:35:44.134Z,1.10
2018-12-13T18:38:17.938Z,1.20
2018-12-13T18:40:50.283Z,1.10
2018-12-13T18:43:23.723Z,1.10
2018-12-13T18:45:57.169Z,1.10
2018-12-13T18:48:31.123Z,1.10
2018-12-13T18:51:04.368Z,1.10
2018-12-13T18:53:38.182Z,1.00
2018-12-13T18:56:11.714Z,1.10
2018-12-13T18:58:44.768Z,1.10
2018-12-13T19:01:18.523Z,1.10
2018-12-13T19:03:52.510Z,1.10
2018-12-13T19:06:26.392Z,1.10
2018-12-13T19:09:00.066Z,1.10
2018-12-13T19:11:33.969Z,1.20
2018-12-13T19:14:06.523Z,1.20
2018-12-13T19:16:38.919Z,1.20
2018-12-13T19:19:11.517Z,1.20
2018-12-13T19:21:43.803Z,1.20
2018-12-13T19:24:16.035Z,1.20
2018-12-13T19:26:48.560Z,1.20
2018-12-13T19:29:20.869Z,1.20
2018-12-13T19:31:55.100Z,1.30
2018-12-13T19:34:27.457Z,1.20
2018-12-13T19:37:00.162Z,1.20
2018-12-13T19:39:32.525Z,1.20
2018-12-13T19:42:04.970Z,1.30
2018-12-13T19:44:40.286Z,1.30
2018-12-13T19:47:13.504Z,1.30
2018-12-13T19:49:46.415Z,1.30
2018-12-13T19:52:18.792Z,1.30
2018-12-13T19:54:51.166Z,1.20
2018-12-13T19:57:23.410Z,1.30
2018-12-13T19:59:55.881Z,1.30
2018-12-13T20:02:29.119Z,1.30
2018-12-13T20:05:01.757Z,1.30
2018-12-13T20:07:33.946Z,1.30
2018-12-13T20:10:10.391Z,1.30
2018-12-13T20:12:42.796Z,1.40
2018-12-13T20:15:15.172Z,1.40
2018-12-13T20:17:47.404Z,1.40
2018-12-13T20:20:19.507Z,1.30
2018-12-13T20:22:52.331Z,1.30
2018-12-13T20:25:25.477Z,1.40
2018-12-13T20:27:58.070Z,1.40
2018-12-13T20:30:33.590Z,1.40
2018-12-13T20:33:05.693Z,1.40
2018-12-13T20:35:37.822Z,1.40
2018-12-13T20:38:11.336Z,1.40
2018-12-13T20:40:43.545Z,1.40
2018-12-13T20:43:15.625Z,1.40
2018-12-13T20:45:47.860Z,1.40
2018-12-13T20:48:20.627Z,1.50
2018-12-13T20:50:52.886Z,1.50
2018-12-13T20:53:25.002Z,1.40
2018-12-13T20:55:57.139Z,1.40
2018-12-13T20:58:28.963Z,1.40
2018-12-13T21:01:01.773Z,1.40
2018-12-13T21:03:35.882Z,1.40
2018-12-13T21:06:08.575Z,1.40
2018-12-13T21:08:40.766Z,1.40
2018-12-13T21:11:13.950Z,1.50
2018-12-13T21:13:46.217Z,1.50
2018-12-13T21:16:19.780Z,1.40
2018-12-13T21:18:51.802Z,1.40
2018-12-13T21:21:24.474Z,1.40
2018-12-13T21:23:58.345Z,1.40
2018-12-13T21:26:30.911Z,1.40
2018-12-13T21:29:02.863Z,1.50
2018-12-13T21:31:36.491Z,1.50
2018-12-13T21:34:09.340Z,1.50
2018-12-13T21:36:41.809Z,1.50
2018-12-13T21:39:16.616Z,1.50
2018-12-13T21:41:48.858Z,1.50
2018-12-13T21:44:22.195Z,1.50
2018-12-13T21:46:54.609Z,1.50
2018-12-13T21:49:26.848Z,1.50
2018-12-13T21:51:59.497Z,1.50
2018-12-13T21:54:34.007Z,1.50
2018-12-13T21:57:06.335Z,1.50
2018-12-13T21:59:39.024Z,1.50
2018-12-13T22:02:11.043Z,1.60
2018-12-13T22:04:42.985Z,1.60
2018-12-13T22:07:15.400Z,1.60
2018-12-13T22:09:48.814Z,1.60
2018-12-13T22:12:20.872Z,1.60
2018-12-13T22:14:52.855Z,1.60
2018-12-13T22:17:25.832Z,1.60
2018-12-13T22:19:58.465Z,1.60
2018-12-13T22:22:30.677Z,1.60
2018-12-13T22:25:02.805Z,1.60
2018-12-13T22:27:35.486Z,1.60
2018-12-13T22:30:08.548Z,1.60
2018-12-13T22:32:41.039Z,1.70
2018-12-13T22:35:12.894Z,1.70
2018-12-13T22:37:45.575Z,1.60
2018-12-13T22:40:17.942Z,1.60
2018-12-13T22:42:49.932Z,1.50
2018-12-13T22:45:22.069Z,1.60
2018-12-13T22:47:54.170Z,1.60
2018-12-13T22:50:26.336Z,1.50
2018-12-13T22:52:58.478Z,1.60
2018-12-13T22:55:30.802Z,1.60
2018-12-13T22:58:04.123Z,1.60
2018-12-13T23:00:36.934Z,1.60
2018-12-13T23:03:09.171Z,1.70
2018-12-13T23:05:41.449Z,1.70
2018-12-13T23:08:13.330Z,1.70
2018-12-13T23:10:45.790Z,1.70
2018-12-13T23:13:17.813Z,1.60
2018-12-13T23:15:50.329Z,1.60
2018-12-13T23:18:22.035Z,1.50
2018-12-13T23:20:55.116Z,1.50
2018-12-13T23:23:27.260Z,1.50
2018-12-13T23:25:58.886Z,1.50
2018-12-13T23:28:31.488Z,1.60
2018-12-13T23:31:03.604Z,1.60
2018-12-13T23:33:36.024Z,1.50
2018-12-13T23:36:07.884Z,1.50
2018-12-13T23:38:39.645Z,1.50
2018-12-13T23:41:11.674Z,1.50
2018-12-13T23:43:43.629Z,1.50
2018-12-13T23:46:15.600Z,1.50
2018-12-13T23:48:47.437Z,1.50
2018-12-13T23:51:19.583Z,1.60
2018-12-13T23:53:51.733Z,1.60
2018-12-13T23:56:23.845Z,1.70
2018-12-13T23:58:56.172Z,1.70
